Time;durP1;ratioP1;P1;durP2;ratioP2;P2;SDS_P1;SDS_P2;PMS_P1;PMS_P2;Temp;Humidity;BMP_temperature;BMP_pressure;BME280_temperature;BME280_humidity;BME280_pressure;Samples;Min_cycle;Max_cycle;Signal;HPM_P1;HPM_P2
2022/06/26 00:04:10;;;;;;;4.82;2.10;;;29.00;59.60;;;;;;10940267;32;20022;-67
2022/06/26 00:10:12;;;;;;;4.50;1.90;;;29.00;59.40;;;;;;10940575;32;20326;-68
2022/06/26 00:16:15;;;;;;;3.80;1.67;;;28.90;59.20;;;;;;10939458;32;20391;-68
2022/06/26 00:22:17;;;;;;;2.40;1.40;;;28.80;59.60;;;;;;10940293;32;20027;-68
2022/06/26 00:28:20;;;;;;;1.80;1.20;;;28.80;59.60;;;;;;10940243;32;20022;-68
2022/06/26 00:34:22;;;;;;;2.67;2.05;;;28.80;59.90;;;;;;10939537;32;20065;-68
2022/06/26 00:40:24;;;;;;;3.80;1.37;;;28.80;59.80;;;;;;10940010;32;20031;-68
2022/06/26 00:46:27;;;;;;;2.87;1.83;;;28.70;59.80;;;;;;10939623;32;20023;-68
2022/06/26 00:52:46;;;;;;;4.87;1.87;;;28.60;59.90;;;;;;10938242;32;20022;-68
2022/06/26 00:58:48;;;;;;;2.00;1.42;;;28.60;60.40;;;;;;10938807;32;20034;-68
2022/06/26 01:05:13;;;;;;;3.03;2.20;;;28.60;61.00;;;;;;10938924;32;20407;-68
2022/06/26 01:11:18;;;;;;;3.87;1.95;;;28.40;60.90;;;;;;10937804;32;20058;-68
2022/06/26 01:17:21;;;;;;;6.03;2.10;;;28.40;60.90;;;;;;10938075;32;20022;-68
2022/06/26 01:23:23;;;;;;;5.65;2.08;;;28.50;60.80;;;;;;10937123;32;20031;-67
2022/06/26 01:29:26;;;;;;;8.00;2.80;;;28.40;60.60;;;;;;10937863;32;20077;-68
2022/06/26 01:35:29;;;;;;;5.37;2.10;;;28.30;61.00;;;;;;10937936;32;20066;-68
2022/06/26 01:41:32;;;;;;;3.78;2.78;;;28.30;61.50;;;;;;10924324;32;20335;-68
2022/06/26 01:47:34;;;;;;;4.32;2.42;;;28.30;61.80;;;;;;10936653;32;20335;-68
2022/06/26 01:53:37;;;;;;;4.85;1.80;;;28.30;61.80;;;;;;10937453;32;20031;-68
2022/06/26 01:59:40;;;;;;;4.22;1.77;;;28.30;61.80;;;;;;10937212;32;20062;-68
2022/06/26 02:05:44;;;;;;;4.82;2.03;;;28.30;62.10;;;;;;10937439;32;20045;-68
2022/06/26 02:18:07;;;;;;;6.80;2.72;;;28.10;62.80;;;;;;10937581;32;20050;-68
2022/06/26 02:24:10;;;;;;;3.97;2.60;;;28.00;63.10;;;;;;10944134;32;20346;-68
2022/06/26 02:30:12;;;;;;;4.10;2.15;;;27.90;63.60;;;;;;10930701;32;20410;-68
2022/06/26 02:36:15;;;;;;;1.75;1.50;;;28.00;63.90;;;;;;10944243;32;20038;-68
2022/06/26 02:42:17;;;;;;;6.62;2.33;;;27.90;64.10;;;;;;10944384;32;20339;-68
2022/06/26 02:48:21;;;;;;;4.68;2.58;;;27.90;64.20;;;;;;10943493;32;20027;-69
2022/06/26 02:54:23;;;;;;;4.87;2.25;;;27.80;64.40;;;;;;10944109;32;20399;-68
2022/06/26 03:00:26;;;;;;;6.97;2.75;;;27.80;64.80;;;;;;10943054;32;20066;-68
2022/06/26 03:06:33;;;;;;;9.35;2.40;;;27.80;64.80;;;;;;10943232;32;20049;-69
2022/06/26 03:12:47;;;;;;;9.93;3.25;;;27.80;64.60;;;;;;10943301;32;20054;-68
2022/06/26 03:18:50;;;;;;;5.00;2.25;;;27.80;64.50;;;;;;10942572;32;20035;-69
2022/06/26 03:24:52;;;;;;;4.03;2.17;;;27.70;64.70;;;;;;10942242;32;20031;-69
2022/06/26 03:30:54;;;;;;;3.80;2.50;;;27.60;65.10;;;;;;10943079;32;20026;-68
2022/06/26 03:36:57;;;;;;;9.75;2.58;;;27.60;65.30;;;;;;10943104;32;20367;-70
2022/06/26 03:42:59;;;;;;;4.93;2.25;;;27.70;65.30;;;;;;10941727;32;20023;-68
2022/06/26 03:49:05;;;;;;;4.85;2.20;;;27.60;65.50;;;;;;10941626;32;20031;-68
2022/06/26 03:55:08;;;;;;;4.53;2.42;;;27.50;65.80;;;;;;10942158;32;20300;-76
2022/06/26 04:01:10;;;;;;;4.25;2.47;;;27.50;66.00;;;;;;10944498;32;20031;-76
2022/06/26 04:07:12;;;;;;;3.30;2.03;;;27.50;66.30;;;;;;10945222;32;20301;-75
2022/06/26 04:13:15;;;;;;;3.05;1.85;;;27.40;66.50;;;;;;10944980;32;20027;-74
2022/06/26 04:19:18;;;;;;;3.05;2.50;;;27.50;66.70;;;;;;10944569;32;20038;-76
2022/06/26 04:25:20;;;;;;;3.83;2.40;;;27.50;66.50;;;;;;10944601;32;20027;-76
2022/06/26 04:31:22;;;;;;;4.30;2.12;;;27.50;66.20;;;;;;11007205;27;20440;-76
2022/06/26 04:37:24;;;;;;;4.47;2.70;;;27.60;66.10;;;;;;11019753;32;20029;-75
2022/06/26 04:43:26;;;;;;;3.97;2.53;;;27.60;66.20;;;;;;11019447;32;20057;-76
2022/06/26 04:49:28;;;;;;;4.35;2.05;;;27.60;66.20;;;;;;11019357;32;20014;-75
2022/06/26 04:55:30;;;;;;;5.87;2.12;;;27.50;66.50;;;;;;11005182;32;20026;-75
2022/06/26 05:01:32;;;;;;;8.02;2.10;;;27.50;66.40;;;;;;11018895;32;20413;-76
2022/06/26 05:07:44;;;;;;;8.82;3.28;;;27.60;66.40;;;;;;11004354;32;20386;-77
2022/06/26 05:13:47;;;;;;;10.88;3.03;;;27.60;66.40;;;;;;11018491;32;20058;-76
2022/06/26 05:19:50;;;;;;;6.00;2.67;;;27.70;66.10;;;;;;11018211;32;20023;-76
2022/06/26 05:25:54;;;;;;;4.87;2.30;;;27.80;65.60;;;;;;11018069;32;20018;-76
2022/06/26 05:31:56;;;;;;;2.45;1.60;;;27.80;65.90;;;;;;11018038;32;20050;-75
2022/06/26 05:37:59;;;;;;;4.72;2.65;;;27.80;65.90;;;;;;11017773;32;20061;-74
2022/06/26 05:44:04;;;;;;;2.83;1.45;;;27.90;66.00;;;;;;11014498;32;20026;-74
2022/06/26 05:50:07;;;;;;;3.28;1.70;;;27.90;66.00;;;;;;11017851;32;20037;-74
2022/06/26 05:56:15;;;;;;;7.03;3.17;;;28.10;65.40;;;;;;11005380;32;20405;-72
2022/06/26 06:02:22;;;;;;;4.00;2.08;;;28.30;65.20;;;;;;10975160;32;20027;-73
2022/06/26 06:08:25;;;;;;;9.38;2.80;;;28.30;65.60;;;;;;10987099;32;20027;-74
2022/06/26 06:14:27;;;;;;;5.32;2.08;;;28.40;65.50;;;;;;10982469;32;20069;-73
2022/06/26 06:20:29;;;;;;;8.05;2.22;;;28.50;65.40;;;;;;10986627;32;20026;-73
2022/06/26 06:26:31;;;;;;;2.10;1.58;;;28.60;65.20;;;;;;10986416;32;20015;-74
2022/06/26 06:32:36;;;;;;;3.25;2.28;;;28.70;65.20;;;;;;10986297;32;20019;-73
2022/06/26 06:38:40;;;;;;;5.80;1.90;;;28.80;64.60;;;;;;10986046;32;20014;-73
2022/06/26 06:44:43;;;;;;;3.35;1.85;;;29.00;64.20;;;;;;10972452;32;20424;-73
2022/06/26 06:50:46;;;;;;;3.92;2.40;;;29.10;64.10;;;;;;10985498;32;20026;-73
2022/06/26 06:56:49;;;;;;;6.35;2.25;;;29.20;63.70;;;;;;10983980;32;20031;-74
2022/06/26 07:02:51;;;;;;;2.90;1.73;;;29.30;63.90;;;;;;10985139;32;20018;-74
2022/06/26 07:08:53;;;;;;;7.37;2.53;;;29.30;63.50;;;;;;11005419;32;20563;-74
2022/06/26 07:14:55;;;;;;;2.62;1.70;;;29.40;63.10;;;;;;11022631;32;20018;-73
2022/06/26 07:20:57;;;;;;;4.75;1.95;;;29.50;63.00;;;;;;11022498;32;20064;-73
2022/06/26 07:27:03;;;;;;;6.87;1.80;;;29.50;62.80;;;;;;11022231;32;20044;-73
2022/06/26 07:39:30;;;;;;;8.73;2.40;;;29.80;62.50;;;;;;11022085;32;20337;-73
2022/06/26 07:45:33;;;;;;;1.67;1.25;;;29.80;62.20;;;;;;11021186;32;20506;-75
2022/06/26 07:51:36;;;;;;;6.90;2.60;;;29.90;62.10;;;;;;10995402;32;20022;-73
2022/06/26 07:57:38;;;;;;;7.37;2.53;;;29.90;61.70;;;;;;10982619;32;20063;-72
2022/06/26 08:03:41;;;;;;;7.12;2.95;;;30.00;61.60;;;;;;10978918;32;20014;-68
2022/06/26 08:09:48;;;;;;;7.28;2.58;;;30.10;61.10;;;;;;10982781;32;20027;-68
2022/06/26 08:15:51;;;;;;;4.28;1.90;;;30.30;60.50;;;;;;10982179;32;20026;-68
2022/06/26 08:22:13;;;;;;;5.28;2.72;;;30.40;60.30;;;;;;10981899;32;20022;-67
2022/06/26 08:28:15;;;;;;;6.68;1.90;;;30.50;60.00;;;;;;10982066;32;20350;-68
2022/06/26 08:34:17;;;;;;;5.45;2.60;;;30.60;59.70;;;;;;10981657;32;20049;-68
2022/06/26 08:40:19;;;;;;;10.20;3.20;;;30.70;59.50;;;;;;10981568;32;20026;-72
2022/06/26 08:46:24;;;;;;;2.53;1.92;;;30.80;59.00;;;;;;10981261;32;20030;-73
2022/06/26 08:52:27;;;;;;;6.53;2.83;;;30.90;58.50;;;;;;10967710;32;20391;-72
2022/06/26 08:58:30;;;;;;;8.13;2.72;;;31.00;58.00;;;;;;10980884;32;20018;-73
2022/06/26 09:04:32;;;;;;;9.55;2.33;;;31.20;58.00;;;;;;10980773;32;20311;-72
2022/06/26 09:10:37;;;;;;;6.82;2.42;;;31.30;58.10;;;;;;10980583;32;20379;-74
2022/06/26 09:16:44;;;;;;;7.97;1.92;;;31.30;57.70;;;;;;10981261;32;20044;-72
2022/06/26 09:22:56;;;;;;;;;;;31.50;57.40;;;;;;11018649;32;20033;-72
2022/06/26 09:29:18;;;;;;;2.67;1.35;;;31.60;57.10;;;;;;11018284;32;19921;-72
2022/06/26 09:35:24;;;;;;;4.30;2.05;;;31.70;56.60;;;;;;11004289;32;20049;-72
2022/06/26 09:41:56;;;;;;;12.93;2.00;;;31.80;55.90;;;;;;10999575;32;20034;-73
2022/06/26 09:47:59;;;;;;;7.53;2.85;;;32.00;55.70;;;;;;11017868;32;20022;-72
2022/06/26 09:54:03;;;;;;;3.35;1.77;;;32.10;55.10;;;;;;11017318;32;20033;-72
2022/06/26 10:00:07;;;;;;;4.82;2.58;;;32.30;54.40;;;;;;10967963;32;20026;-72
2022/06/26 10:06:33;;;;;;;8.48;2.62;;;32.50;54.10;;;;;;10980417;32;20417;-68
2022/06/26 10:12:36;;;;;;;2.42;1.75;;;32.60;53.70;;;;;;10979262;32;20031;-69
2022/06/26 10:19:14;;;;;;;9.00;3.05;;;32.70;53.00;;;;;;10979850;32;20061;-69
2022/06/26 10:25:29;;;;;;;4.25;2.37;;;33.00;52.20;;;;;;10975029;32;20014;-68
2022/06/26 10:31:51;;;;;;;7.35;2.10;;;33.10;51.70;;;;;;10978746;32;20410;-69
2022/06/26 10:37:53;;;;;;;4.37;1.33;;;33.40;51.50;;;;;;10978734;32;20034;-67
2022/06/26 10:44:17;;;;;;;1.95;1.17;;;33.70;51.30;;;;;;10983888;32;20346;-68
2022/06/26 10:50:33;;;;;;;5.03;1.98;;;33.80;51.10;;;;;;10985545;32;20034;-67
2022/06/26 10:56:35;;;;;;;3.87;1.62;;;33.90;50.00;;;;;;10985365;32;20041;-68
2022/06/26 11:02:39;;;;;;;6.03;1.45;;;34.10;50.30;;;;;;10985225;32;20088;-67
2022/06/26 11:08:48;;;;;;;3.05;1.73;;;34.30;49.50;;;;;;10971539;32;20023;-68
2022/06/26 11:14:57;;;;;;;8.25;2.25;;;34.50;48.60;;;;;;10981094;32;20370;-67
2022/06/26 11:21:01;;;;;;;5.25;2.58;;;34.60;49.70;;;;;;10984394;32;20053;-67
2022/06/26 11:27:03;;;;;;;5.45;2.00;;;34.60;49.20;;;;;;10983959;32;20069;-67
2022/06/26 11:33:07;;;;;;;5.93;2.10;;;34.70;48.30;;;;;;10983271;32;20049;-68
2022/06/26 11:39:09;;;;;;;5.45;2.35;;;34.90;47.50;;;;;;10983990;32;20050;-67
2022/06/26 11:45:24;;;;;;;6.30;2.45;;;35.10;47.50;;;;;;10980151;32;20035;-69
2022/06/26 11:51:32;;;;;;;3.75;2.05;;;35.20;47.20;;;;;;10982838;32;20015;-67
2022/06/26 11:57:34;;;;;;;5.93;1.83;;;35.60;46.60;;;;;;10966738;32;20034;-69
2022/06/26 12:04:03;;;;;;;4.43;2.25;;;35.90;45.90;;;;;;10983029;32;20068;-73
2022/06/26 12:10:06;;;;;;;5.57;1.70;;;36.20;45.00;;;;;;10982426;32;20027;-73
2022/06/26 12:16:09;;;;;;;3.05;1.70;;;36.30;44.40;;;;;;10982547;32;20085;-74
2022/06/26 12:22:11;;;;;;;7.62;2.85;;;36.10;44.70;;;;;;10982300;32;20041;-72
2022/06/26 12:28:27;;;;;;;6.35;1.83;;;36.20;45.10;;;;;;10984702;27;20034;-73
2022/06/26 12:34:29;;;;;;;8.27;2.92;;;36.10;45.90;;;;;;10947871;32;20399;-74
2022/06/26 12:40:35;;;;;;;7.32;2.45;;;36.10;46.00;;;;;;10943999;32;20030;-73
2022/06/26 12:46:50;;;;;;;5.15;1.90;;;36.00;47.00;;;;;;10943898;32;20338;-73
2022/06/26 12:52:56;;;;;;;13.73;3.58;;;36.10;46.50;;;;;;10943676;32;20097;-75
2022/06/26 12:58:59;;;;;;;7.45;3.62;;;36.20;46.40;;;;;;10943542;32;20402;-75
2022/06/26 13:05:01;;;;;;;10.98;2.53;;;36.00;46.90;;;;;;10943319;32;20054;-74
2022/06/26 13:17:31;;;;;;;14.43;2.87;;;35.80;46.80;;;;;;10941199;32;20034;-75
2022/06/26 13:23:33;;;;;;;6.12;3.10;;;35.90;46.60;;;;;;10942673;32;20015;-73
2022/06/26 13:29:36;;;;;;;12.88;2.97;;;35.90;46.50;;;;;;10942569;32;20041;-75
2022/06/26 13:35:38;;;;;;;6.78;2.72;;;35.80;47.00;;;;;;10942136;32;20058;-74
2022/06/26 13:41:40;;;;;;;7.95;2.42;;;35.70;46.80;;;;;;10941794;32;20019;-74
2022/06/26 13:47:42;;;;;;;5.87;2.35;;;35.60;46.60;;;;;;10941969;32;20038;-74
2022/06/26 13:53:44;;;;;;;6.03;1.85;;;35.60;47.20;;;;;;10940888;32;20019;-74
2022/06/26 13:59:46;;;;;;;9.80;2.30;;;35.40;46.90;;;;;;10941856;32;20019;-73
2022/06/26 14:05:48;;;;;;;5.32;1.77;;;35.60;46.20;;;;;;10941415;32;20037;-74
2022/06/26 14:11:50;;;;;;;8.38;2.42;;;35.60;46.60;;;;;;10937030;32;20010;-74
2022/06/26 14:17:52;;;;;;;10.00;2.72;;;35.50;46.10;;;;;;10945517;32;20023;-74
2022/06/26 14:30:16;;;;;;;4.55;1.77;;;35.60;45.10;;;;;;10948193;32;20068;-74
2022/06/26 14:36:23;;;;;;;8.48;1.73;;;35.60;45.20;;;;;;10948182;32;20019;-73
2022/06/26 14:42:25;;;;;;;6.50;1.87;;;35.50;45.30;;;;;;10948061;32;20023;-73
2022/06/26 14:48:47;;;;;;;8.32;1.70;;;35.50;45.30;;;;;;10947128;32;20024;-69
2022/06/26 14:54:54;;;;;;;7.47;1.58;;;35.40;45.10;;;;;;10947349;32;20022;-70
2022/06/26 15:00:56;;;;;;;6.28;2.05;;;35.40;44.80;;;;;;10947336;32;20375;-69
2022/06/26 15:07:10;;;;;;;4.72;1.98;;;35.40;44.40;;;;;;10947098;32;20023;-69
2022/06/26 15:13:13;;;;;;;2.92;1.73;;;35.30;44.70;;;;;;10929366;32;20019;-68
2022/06/26 15:19:22;;;;;;;2.33;1.52;;;35.40;44.30;;;;;;10946921;32;20023;-68
2022/06/26 15:25:26;;;;;;;5.78;1.60;;;35.50;43.60;;;;;;10946826;32;20191;-69
2022/06/26 15:31:29;;;;;;;4.32;1.95;;;35.40;43.50;;;;;;10944748;32;20323;-69
2022/06/26 15:37:31;;;;;;;3.25;1.40;;;35.40;43.20;;;;;;10932807;32;20046;-67
2022/06/26 15:43:33;;;;;;;5.47;2.00;;;35.40;43.90;;;;;;10943893;32;20026;-73
2022/06/26 15:49:36;;;;;;;3.92;1.67;;;35.40;43.50;;;;;;10943165;32;20033;-73
2022/06/26 15:55:39;;;;;;;5.30;2.37;;;35.40;43.50;;;;;;10945794;32;20379;-74
2022/06/26 16:02:17;;;;;;;2.67;1.65;;;35.40;43.90;;;;;;10945621;32;20019;-74
2022/06/26 16:08:19;;;;;;;13.25;2.00;;;35.40;44.10;;;;;;10945505;32;20283;-74
2022/06/26 16:14:21;;;;;;;4.35;2.08;;;35.40;43.80;;;;;;10945197;32;20338;-74
2022/06/26 16:20:25;;;;;;;8.18;2.28;;;35.40;43.40;;;;;;10944728;32;20027;-74
2022/06/26 16:26:30;;;;;;;4.78;1.95;;;35.50;43.00;;;;;;10943449;32;20046;-74
2022/06/26 16:32:32;;;;;;;5.87;2.00;;;35.70;42.90;;;;;;10944537;32;20038;-74
2022/06/26 16:38:35;;;;;;;7.37;1.77;;;35.60;43.20;;;;;;10940619;32;20018;-73
2022/06/26 16:44:42;;;;;;;4.78;2.22;;;35.60;43.40;;;;;;10944139;32;20300;-73
2022/06/26 16:50:45;;;;;;;1.67;1.23;;;35.50;44.30;;;;;;10943978;32;20038;-73
2022/06/26 16:56:48;;;;;;;4.22;1.48;;;35.60;43.90;;;;;;10927474;32;20058;-73
2022/06/26 17:02:50;;;;;;;13.80;1.77;;;35.60;43.80;;;;;;10943488;32;20015;-69
2022/06/26 17:08:52;;;;;;;4.70;2.28;;;35.40;43.90;;;;;;10925916;32;20019;-69
2022/06/26 17:14:55;;;;;;;4.97;1.40;;;35.30;44.50;;;;;;10938743;32;20061;-69
2022/06/26 17:20:59;;;;;;;3.53;1.55;;;35.20;44.80;;;;;;10942840;32;20064;-74
2022/06/26 17:27:01;;;;;;;9.43;2.35;;;35.10;45.00;;;;;;10942510;32;20019;-74
2022/06/26 17:33:04;;;;;;;2.12;1.10;;;35.10;45.50;;;;;;10942386;32;20381;-73
2022/06/26 17:39:07;;;;;;;8.60;2.78;;;35.00;45.50;;;;;;10942240;32;20041;-69
2022/06/26 17:45:09;;;;;;;3.67;1.42;;;35.10;45.30;;;;;;10942196;32;20019;-69
2022/06/26 17:51:12;;;;;;;10.15;1.48;;;35.00;46.00;;;;;;10941620;32;20294;-69
2022/06/26 17:57:14;;;;;;;1.58;0.93;;;35.10;46.30;;;;;;10941896;32;20050;-69
2022/06/26 18:03:16;;;;;;;10.65;1.52;;;35.60;45.40;;;;;;10941834;32;20038;-69
2022/06/26 18:09:21;;;;;;;5.95;1.25;;;35.60;45.50;;;;;;10926015;32;20019;-69
2022/06/26 18:15:24;;;;;;;2.30;1.20;;;35.20;46.10;;;;;;10938716;32;20191;-69
2022/06/26 18:21:27;;;;;;;5.87;1.87;;;34.70;46.80;;;;;;10928080;32;20023;-69
2022/06/26 18:27:31;;;;;;;5.37;1.40;;;34.30;47.90;;;;;;10923753;32;20015;-69
2022/06/26 18:33:33;;;;;;;4.75;2.12;;;34.00;48.90;;;;;;10941314;32;20046;-68
2022/06/26 18:39:36;;;;;;;2.85;1.02;;;33.90;49.00;;;;;;10937175;32;20053;-69
2022/06/26 18:45:39;;;;;;;4.15;1.17;;;33.70;49.30;;;;;;10941047;32;20059;-69
2022/06/26 18:51:41;;;;;;;1.62;0.80;;;33.40;50.00;;;;;;10940798;32;20023;-73
2022/06/26 18:57:44;;;;;;;1.33;0.43;;;33.30;50.30;;;;;;10940497;32;20026;-73
2022/06/26 19:03:46;;;;;;;1.98;0.70;;;33.20;50.40;;;;;;10944526;32;20042;-73
2022/06/26 19:09:49;;;;;;;1.20;0.57;;;33.10;50.90;;;;;;10945570;32;20050;-69
2022/06/26 19:15:54;;;;;;;2.53;0.90;;;32.90;51.20;;;;;;10945222;32;20042;-69
2022/06/26 19:21:57;;;;;;;3.45;0.85;;;32.90;51.30;;;;;;10944712;32;20023;-69
2022/06/26 19:27:59;;;;;;;0.98;0.55;;;32.80;51.50;;;;;;10944051;32;20322;-69
2022/06/26 19:34:02;;;;;;;0.95;0.60;;;32.70;51.70;;;;;;10942360;32;20331;-69
2022/06/26 19:40:06;;;;;;;1.80;0.90;;;32.60;51.90;;;;;;10946287;32;20034;-69
2022/06/26 19:46:08;;;;;;;1.30;0.60;;;32.50;52.30;;;;;;10941951;32;20433;-69
2022/06/26 19:52:10;;;;;;;2.10;0.80;;;32.40;53.30;;;;;;10945910;32;20368;-68
2022/06/26 19:58:12;;;;;;;0.90;0.62;;;32.30;53.70;;;;;;10945656;32;20027;-68
2022/06/26 20:04:15;;;;;;;0.57;0.40;;;32.20;53.90;;;;;;10942547;32;20403;-68
2022/06/26 20:10:17;;;;;;;1.00;0.82;;;32.00;53.90;;;;;;10944887;32;20031;-68
2022/06/26 20:16:19;;;;;;;2.80;1.10;;;31.90;54.10;;;;;;10940277;32;20053;-69
2022/06/26 20:22:22;;;;;;;1.33;0.90;;;31.80;54.30;;;;;;10941109;32;20027;-69
2022/06/26 20:28:24;;;;;;;4.70;1.23;;;31.80;54.60;;;;;;10542880;27;13378156;-69
2022/06/26 20:34:27;;;;;;;0.98;0.80;;;31.80;55.30;;;;;;10937440;32;20034;-69
2022/06/26 20:40:29;;;;;;;3.15;1.25;;;31.80;55.40;;;;;;10936584;32;20379;-69
2022/06/26 20:46:32;;;;;;;2.67;1.42;;;31.60;55.60;;;;;;10923418;32;20027;-69
2022/06/26 20:52:34;;;;;;;2.37;1.30;;;31.60;55.70;;;;;;10936120;32;20027;-69
2022/06/26 20:58:37;;;;;;;1.30;0.80;;;31.50;55.90;;;;;;10974030;32;20034;-69
2022/06/26 21:04:40;;;;;;;2.50;1.02;;;31.40;55.90;;;;;;10963249;32;20426;-69
2022/06/26 21:10:43;;;;;;;1.08;0.80;;;31.30;56.20;;;;;;10962810;32;20056;-76
2022/06/26 21:16:45;;;;;;;2.25;1.27;;;31.20;56.40;;;;;;10980539;32;20026;-75
2022/06/26 21:22:47;;;;;;;2.83;0.98;;;31.10;56.60;;;;;;10980342;32;20421;-75
2022/06/26 21:28:49;;;;;;;1.67;0.95;;;31.10;57.10;;;;;;10979608;32;20061;-74
2022/06/26 21:34:57;;;;;;;0.80;0.80;;;31.00;58.30;;;;;;10975947;32;20027;-75
2022/06/26 21:41:00;;;;;;;2.10;0.70;;;30.80;59.00;;;;;;10979958;32;20088;-74
2022/06/26 21:47:02;;;;;;;2.03;0.98;;;30.80;59.40;;;;;;10979746;32;20056;-75
2022/06/26 21:53:05;;;;;;;1.42;0.82;;;30.80;60.00;;;;;;10982012;32;20342;-76
2022/06/26 21:59:08;;;;;;;2.12;1.12;;;30.80;59.60;;;;;;10992295;32;20049;-74
2022/06/26 22:05:12;;;;;;;1.27;0.75;;;30.70;60.00;;;;;;10982046;32;20070;-75
2022/06/26 22:11:14;;;;;;;7.00;1.35;;;30.70;60.50;;;;;;10979486;32;20018;-75
2022/06/26 22:17:16;;;;;;;1.67;1.08;;;30.60;61.00;;;;;;10979259;32;20334;-74
2022/06/26 22:23:19;;;;;;;2.00;0.82;;;30.60;60.90;;;;;;10979219;32;20300;-75
2022/06/26 22:29:21;;;;;;;3.03;0.88;;;30.50;61.40;;;;;;10978997;32;20031;-75
2022/06/26 22:35:25;;;;;;;2.28;1.15;;;30.40;61.70;;;;;;10979012;32;20019;-75
2022/06/26 22:41:27;;;;;;;1.10;1.00;;;30.50;61.40;;;;;;10986234;32;20065;-75
2022/06/26 22:47:42;;;;;;;1.45;0.57;;;30.40;61.50;;;;;;10985984;32;20014;-74
2022/06/26 22:53:52;;;;;;;2.42;1.05;;;30.30;61.90;;;;;;10985825;32;20023;-74
2022/06/26 23:00:06;;;;;;;1.75;0.95;;;30.20;62.60;;;;;;10985339;32;20034;-74
2022/06/26 23:06:08;;;;;;;2.67;1.48;;;30.20;63.00;;;;;;10985365;32;20334;-75
2022/06/26 23:12:10;;;;;;;1.58;0.93;;;30.20;62.90;;;;;;10985156;32;20326;-75
2022/06/26 23:18:13;;;;;;;1.87;0.95;;;30.00;62.80;;;;;;10984820;32;20065;-75
2022/06/26 23:24:16;;;;;;;0.77;0.57;;;29.90;62.80;;;;;;10984706;32;20015;-75
2022/06/26 23:30:18;;;;;;;4.68;1.25;;;29.90;62.60;;;;;;10984522;32;20072;-75
2022/06/26 23:43:07;;;;;;;0.65;0.52;;;29.60;62.80;;;;;;10905610;32;20066;-75
2022/06/26 23:49:11;;;;;;;3.37;1.25;;;29.60;62.90;;;;;;10891099;32;20031;-75
2022/06/26 23:55:13;;;;;;;0.95;0.85;;;29.60;63.00;;;;;;10891689;32;20304;-74
